Time;durP1;ratioP1;P1;durP2;ratioP2;P2;SDS_P1;SDS_P2;PMS_P1;PMS_P2;Temp;Humidity;BMP_temperature;BMP_pressure;BME280_temperature;BME280_humidity;BME280_pressure;Samples;Min_cycle;Max_cycle;Signal;HPM_P1;HPM_P2
2021/08/22 00:00:04;;;;;;;7.57;6.53;;;21.40;99.80;;;;;;6351368;27;20248;-62
2021/08/22 00:03:10;;;;;;;9.97;7.10;;;21.40;99.90;;;;;;6352426;27;20236;-62
2021/08/22 00:06:14;;;;;;;6.80;6.20;;;21.30;99.90;;;;;;6351633;27;20614;-62
2021/08/22 00:09:17;;;;;;;7.00;6.40;;;21.20;99.90;;;;;;6351821;27;20225;-62
2021/08/22 00:12:20;;;;;;;7.63;6.90;;;21.20;99.90;;;;;;6351824;27;20230;-62
2021/08/22 00:15:24;;;;;;;7.00;6.30;;;21.10;99.90;;;;;;6351422;27;20686;-62
2021/08/22 00:18:28;;;;;;;6.87;6.20;;;21.10;99.90;;;;;;6351438;27;20229;-62
2021/08/22 00:21:31;;;;;;;6.43;5.93;;;21.00;99.90;;;;;;6350341;27;20262;-62
2021/08/22 00:24:35;;;;;;;6.70;6.00;;;21.00;99.90;;;;;;6350642;27;20236;-63
2021/08/22 00:27:38;;;;;;;6.90;6.30;;;20.90;99.90;;;;;;6350282;27;20226;-62
2021/08/22 00:30:41;;;;;;;7.90;7.20;;;20.90;99.90;;;;;;6350895;27;20229;-62
2021/08/22 00:33:45;;;;;;;6.00;5.50;;;20.90;99.90;;;;;;6351174;27;20675;-62
2021/08/22 00:36:49;;;;;;;6.47;5.97;;;20.80;99.90;;;;;;6350652;27;20222;-62
2021/08/22 00:39:52;;;;;;;7.10;6.50;;;20.80;99.90;;;;;;6350598;27;20229;-62
2021/08/22 00:42:55;;;;;;;7.30;6.60;;;20.80;99.90;;;;;;6350523;27;20225;-62
2021/08/22 00:45:59;;;;;;;6.77;6.17;;;20.80;99.90;;;;;;6350550;27;20225;-62
2021/08/22 00:49:04;;;;;;;7.20;6.57;;;20.80;99.90;;;;;;6350098;27;20260;-62
2021/08/22 00:52:08;;;;;;;6.47;5.97;;;20.70;99.90;;;;;;6350266;27;20225;-63
2021/08/22 00:55:12;;;;;;;7.70;6.57;;;20.70;99.90;;;;;;6350260;27;20230;-63
2021/08/22 00:58:15;;;;;;;6.73;6.07;;;20.70;99.90;;;;;;6350003;27;20245;-62
2021/08/22 01:01:21;;;;;;;7.50;6.90;;;20.70;99.90;;;;;;6341315;27;20244;-62
2021/08/22 01:04:31;;;;;;;6.70;6.17;;;20.70;99.90;;;;;;6350186;27;20233;-62
2021/08/22 01:07:40;;;;;;;6.50;5.97;;;20.60;99.90;;;;;;6349938;27;20226;-62
2021/08/22 01:10:45;;;;;;;7.03;6.43;;;20.60;99.90;;;;;;6350068;27;20213;-62
2021/08/22 01:13:53;;;;;;;7.83;7.17;;;20.60;99.90;;;;;;6349455;27;20198;-62
2021/08/22 01:16:59;;;;;;;7.43;5.87;;;20.60;99.90;;;;;;6349740;27;20676;-63
2021/08/22 01:20:11;;;;;;;7.50;6.80;;;20.50;99.90;;;;;;6350087;27;20222;-62
2021/08/22 01:23:16;;;;;;;8.10;7.40;;;20.50;99.90;;;;;;6349990;27;20229;-63
2021/08/22 01:26:24;;;;;;;9.30;8.50;;;20.50;99.90;;;;;;6349795;27;20229;-62
2021/08/22 01:29:38;;;;;;;10.13;9.23;;;20.50;99.90;;;;;;6349520;27;20268;-62
2021/08/22 01:32:44;;;;;;;8.10;7.30;;;20.50;99.90;;;;;;6350005;27;20233;-62
2021/08/22 01:35:48;;;;;;;7.70;7.00;;;20.50;99.90;;;;;;6349822;27;20225;-62
2021/08/22 01:38:54;;;;;;;7.90;7.10;;;20.40;99.90;;;;;;6349480;27;20315;-62
2021/08/22 01:41:57;;;;;;;7.53;6.93;;;20.40;99.90;;;;;;6349698;27;20226;-62
2021/08/22 01:45:02;;;;;;;7.67;6.90;;;20.40;99.90;;;;;;6349534;27;20575;-63
2021/08/22 01:48:07;;;;;;;7.03;6.50;;;20.40;99.90;;;;;;6349023;27;20237;-62
2021/08/22 01:51:11;;;;;;;6.90;6.27;;;20.40;99.90;;;;;;6349380;27;20229;-62
2021/08/22 01:54:14;;;;;;;9.50;6.60;;;20.40;99.90;;;;;;6348882;27;20705;-62
2021/08/22 01:57:18;;;;;;;6.40;5.87;;;20.40;99.90;;;;;;6349172;27;20234;-63
2021/08/22 02:00:21;;;;;;;6.53;5.93;;;20.30;99.90;;;;;;6348813;27;20236;-63
2021/08/22 02:03:35;;;;;;;7.93;7.13;;;20.30;99.90;;;;;;6339972;27;20620;-63
2021/08/22 02:06:47;;;;;;;6.90;6.30;;;20.30;99.90;;;;;;6348562;27;20346;-63
2021/08/22 02:09:57;;;;;;;7.00;6.30;;;20.20;99.90;;;;;;6347633;27;20610;-64
2021/08/22 02:13:04;;;;;;;6.60;6.10;;;20.10;99.90;;;;;;6346738;27;20226;-64
2021/08/22 02:16:10;;;;;;;7.73;6.23;;;20.10;99.90;;;;;;6347779;27;20232;-64
2021/08/22 02:19:16;;;;;;;8.37;7.50;;;20.10;99.90;;;;;;6348876;27;20683;-64
2021/08/22 02:22:19;;;;;;;7.60;6.63;;;20.00;99.90;;;;;;6348795;27;20229;-64
2021/08/22 02:25:22;;;;;;;7.63;7.03;;;19.90;99.90;;;;;;6354124;27;20233;-64
2021/08/22 02:28:26;;;;;;;7.03;6.40;;;19.80;99.90;;;;;;6332533;27;20233;-64
2021/08/22 02:31:29;;;;;;;7.63;6.60;;;19.80;99.90;;;;;;6328418;28;20609;-64
2021/08/22 02:34:33;;;;;;;6.70;6.10;;;19.80;99.90;;;;;;6328431;28;20241;-64
2021/08/22 02:37:37;;;;;;;7.47;6.77;;;19.80;99.90;;;;;;6328297;28;20559;-64
2021/08/22 02:40:40;;;;;;;7.77;6.97;;;19.80;99.90;;;;;;6328389;28;20222;-68
2021/08/22 02:43:43;;;;;;;7.83;7.03;;;19.80;99.90;;;;;;6328537;28;20217;-64
2021/08/22 02:46:46;;;;;;;7.10;6.40;;;19.80;99.90;;;;;;6328364;28;20237;-65
2021/08/22 02:49:51;;;;;;;6.87;6.37;;;19.80;99.90;;;;;;6328395;28;20214;-64
2021/08/22 02:52:54;;;;;;;9.20;7.30;;;19.80;99.90;;;;;;6328086;27;20636;-64
2021/08/22 02:55:58;;;;;;;8.00;7.20;;;19.70;99.90;;;;;;6328301;28;20216;-64
2021/08/22 02:59:01;;;;;;;10.57;8.17;;;19.70;99.90;;;;;;6327992;28;20230;-65
2021/08/22 03:02:05;;;;;;;9.47;8.57;;;19.80;99.90;;;;;;6327968;28;20244;-65
2021/08/22 03:05:10;;;;;;;9.17;8.33;;;19.70;99.90;;;;;;6323769;28;20230;-66
2021/08/22 03:08:17;;;;;;;8.60;7.70;;;19.60;99.90;;;;;;6327941;28;20233;-65
2021/08/22 03:11:20;;;;;;;9.93;8.90;;;19.70;99.90;;;;;;6328447;28;20219;-66
2021/08/22 03:14:23;;;;;;;13.40;10.90;;;19.60;99.90;;;;;;6327808;28;20230;-66
2021/08/22 03:17:26;;;;;;;9.07;8.20;;;19.60;99.90;;;;;;6327871;28;20234;-65
2021/08/22 03:20:31;;;;;;;9.33;8.43;;;19.60;99.90;;;;;;6327574;28;20229;-66
2021/08/22 03:23:34;;;;;;;8.17;7.50;;;19.60;99.90;;;;;;6327378;28;20568;-66
2021/08/22 03:26:37;;;;;;;8.33;7.50;;;19.60;99.90;;;;;;6327652;28;20252;-65
2021/08/22 03:29:40;;;;;;;9.30;7.90;;;19.60;99.90;;;;;;6327540;28;20234;-66
2021/08/22 03:32:43;;;;;;;7.70;7.00;;;19.60;99.90;;;;;;6327807;28;20230;-65
2021/08/22 03:35:48;;;;;;;7.70;7.00;;;19.60;99.90;;;;;;6327229;28;20249;-66
2021/08/22 03:38:52;;;;;;;7.23;6.53;;;19.60;99.90;;;;;;6327512;28;20711;-66
2021/08/22 03:41:55;;;;;;;7.17;6.57;;;19.60;99.90;;;;;;6327711;28;20222;-65
2021/08/22 03:44:58;;;;;;;7.10;6.40;;;19.60;99.90;;;;;;6327520;28;20230;-66
2021/08/22 03:48:01;;;;;;;6.87;6.27;;;19.40;99.90;;;;;;6327469;28;20567;-66
2021/08/22 03:51:05;;;;;;;6.50;6.00;;;19.40;99.90;;;;;;6327311;28;20699;-66
2021/08/22 03:54:09;;;;;;;6.80;6.10;;;19.40;99.90;;;;;;6326862;28;20230;-65
2021/08/22 03:57:12;;;;;;;8.00;6.90;;;19.40;99.90;;;;;;6327031;28;20233;-66
2021/08/22 04:00:16;;;;;;;7.43;6.80;;;19.30;99.90;;;;;;6326887;28;20238;-66
2021/08/22 04:03:20;;;;;;;8.00;7.30;;;19.30;99.90;;;;;;6326664;28;20564;-66
2021/08/22 04:06:25;;;;;;;7.60;6.90;;;19.20;99.90;;;;;;6326432;28;20229;-65
2021/08/22 04:09:30;;;;;;;7.10;6.50;;;19.20;99.90;;;;;;6326494;28;20245;-65
2021/08/22 04:12:34;;;;;;;7.80;7.10;;;19.20;99.90;;;;;;6316907;28;20253;-65
2021/08/22 04:15:37;;;;;;;7.20;6.50;;;19.20;99.90;;;;;;6326434;28;20245;-65
2021/08/22 04:18:40;;;;;;;7.40;6.70;;;19.10;99.90;;;;;;6326510;28;20233;-65
2021/08/22 04:21:45;;;;;;;7.30;6.70;;;19.30;99.90;;;;;;6326483;28;20245;-65
2021/08/22 04:24:48;;;;;;;7.83;7.23;;;19.30;99.90;;;;;;6326180;28;20241;-65
2021/08/22 04:27:51;;;;;;;7.73;7.03;;;19.30;99.90;;;;;;6325967;28;20271;-66
2021/08/22 04:30:54;;;;;;;7.47;6.87;;;19.30;99.90;;;;;;6326258;28;20226;-66
2021/08/22 04:33:57;;;;;;;7.43;6.83;;;19.30;99.90;;;;;;6325876;28;20249;-65
2021/08/22 04:37:02;;;;;;;7.80;7.10;;;19.10;99.90;;;;;;6325747;28;20672;-65
2021/08/22 04:40:06;;;;;;;7.87;6.80;;;19.20;99.90;;;;;;6325789;28;20230;-65
2021/08/22 04:43:09;;;;;;;8.43;7.43;;;19.20;99.90;;;;;;6325672;28;20328;-65
2021/08/22 04:46:13;;;;;;;9.13;8.30;;;19.30;99.90;;;;;;6325538;28;20237;-65
2021/08/22 04:49:17;;;;;;;7.83;7.13;;;19.40;99.90;;;;;;6325585;28;20226;-66
2021/08/22 04:52:21;;;;;;;8.40;7.60;;;19.50;99.90;;;;;;6325319;28;20309;-65
2021/08/22 04:55:24;;;;;;;7.80;7.13;;;19.60;99.90;;;;;;6325419;28;20234;-65
2021/08/22 04:58:28;;;;;;;8.00;7.30;;;19.70;99.90;;;;;;6325040;28;20691;-65
2021/08/22 05:01:32;;;;;;;8.23;7.43;;;19.70;99.90;;;;;;6325150;28;20240;-65
2021/08/22 05:04:35;;;;;;;7.40;6.77;;;19.80;99.90;;;;;;6325094;28;20305;-65
2021/08/22 05:07:40;;;;;;;8.07;7.33;;;19.80;99.90;;;;;;6324725;28;20676;-65
2021/08/22 05:10:43;;;;;;;7.87;7.17;;;19.80;99.90;;;;;;6324868;28;20226;-64
2021/08/22 05:13:47;;;;;;;7.97;7.13;;;19.80;99.90;;;;;;6320129;28;20202;-63
2021/08/22 05:16:50;;;;;;;8.53;7.63;;;19.90;99.90;;;;;;6325316;28;20230;-62
2021/08/22 05:19:53;;;;;;;8.63;7.70;;;19.90;99.90;;;;;;6325172;28;20198;-63
2021/08/22 05:22:57;;;;;;;8.07;7.37;;;20.00;99.90;;;;;;6324679;28;20263;-63
2021/08/22 05:26:00;;;;;;;8.47;7.50;;;20.10;99.90;;;;;;6324753;28;20264;-63
2021/08/22 05:29:03;;;;;;;9.83;8.37;;;20.20;99.90;;;;;;6324640;28;20256;-63
2021/08/22 05:32:07;;;;;;;7.80;7.20;;;20.30;99.90;;;;;;6324800;28;20236;-63
2021/08/22 05:35:11;;;;;;;9.10;8.17;;;20.40;99.90;;;;;;6324557;28;20686;-63
2021/08/22 05:38:15;;;;;;;9.07;8.17;;;20.50;99.90;;;;;;6324237;28;20667;-63
2021/08/22 05:41:19;;;;;;;8.93;7.70;;;20.70;99.90;;;;;;6324357;28;20230;-63
2021/08/22 05:44:22;;;;;;;8.57;7.67;;;21.00;99.90;;;;;;6324593;28;20226;-63
2021/08/22 05:47:25;;;;;;;8.17;7.33;;;21.30;99.90;;;;;;6324354;28;20234;-63
2021/08/22 05:50:28;;;;;;;9.30;8.27;;;21.60;99.90;;;;;;6324263;28;20519;-63
2021/08/22 05:53:33;;;;;;;8.27;7.50;;;22.10;99.90;;;;;;6323620;28;20710;-63
2021/08/22 05:56:36;;;;;;;9.73;8.60;;;22.60;99.90;;;;;;6324309;28;20230;-63
2021/08/22 05:59:39;;;;;;;9.87;7.80;;;22.90;99.40;;;;;;6323619;28;20234;-63
2021/08/22 06:02:42;;;;;;;8.97;8.07;;;23.30;98.60;;;;;;6323979;28;20572;-63
2021/08/22 06:05:46;;;;;;;8.90;7.67;;;23.90;97.60;;;;;;6323846;28;20230;-63
2021/08/22 06:08:51;;;;;;;9.97;8.97;;;24.40;96.80;;;;;;6323610;28;20618;-63
2021/08/22 06:11:54;;;;;;;10.60;9.50;;;25.00;95.50;;;;;;6323965;28;20556;-63
2021/08/22 06:14:57;;;;;;;9.57;8.67;;;25.50;94.80;;;;;;6324091;28;20611;-62
2021/08/22 06:18:00;;;;;;;10.37;9.30;;;26.30;92.90;;;;;;6319138;28;20660;-64
2021/08/22 06:21:03;;;;;;;10.57;9.67;;;26.60;91.70;;;;;;6323788;28;20222;-63
2021/08/22 06:24:08;;;;;;;10.33;9.17;;;26.80;90.90;;;;;;6323700;28;20290;-63
2021/08/22 06:27:12;;;;;;;9.57;8.73;;;26.90;90.50;;;;;;6323551;28;20247;-63
2021/08/22 06:30:16;;;;;;;10.60;9.60;;;27.30;89.50;;;;;;6323683;28;20245;-63
2021/08/22 06:33:19;;;;;;;9.83;9.03;;;27.80;87.00;;;;;;6323600;28;20294;-63
2021/08/22 06:36:22;;;;;;;11.63;9.50;;;28.60;84.10;;;;;;6323684;28;20237;-63
2021/08/22 06:39:27;;;;;;;10.53;9.40;;;29.10;80.20;;;;;;6323643;28;20237;-63
2021/08/22 06:42:32;;;;;;;9.47;8.60;;;29.20;78.00;;;;;;6324053;28;20240;-63
2021/08/22 06:45:35;;;;;;;9.07;8.13;;;29.40;77.10;;;;;;6322819;28;20640;-68
2021/08/22 06:48:38;;;;;;;9.90;8.20;;;30.00;75.30;;;;;;6321683;28;20312;-68
2021/08/22 06:51:42;;;;;;;8.33;7.70;;;30.60;72.80;;;;;;6321645;28;20726;-69
2021/08/22 06:54:46;;;;;;;11.02;10.02;;;31.10;70.40;;;;;;6321565;28;20230;-68
2021/08/22 06:57:49;;;;;;;9.63;8.82;;;32.10;66.50;;;;;;6321423;28;20237;-69
2021/08/22 07:00:52;;;;;;;10.25;8.23;;;32.60;63.50;;;;;;6322231;28;20221;-63
2021/08/22 07:03:56;;;;;;;10.18;9.20;;;33.10;61.30;;;;;;6321982;28;20229;-63
2021/08/22 07:07:00;;;;;;;9.60;8.80;;;33.80;58.60;;;;;;6323128;28;20342;-63
2021/08/22 07:10:05;;;;;;;11.57;9.15;;;33.90;58.20;;;;;;6324230;28;20225;-63
2021/08/22 07:13:08;;;;;;;10.52;9.52;;;34.30;56.60;;;;;;6328057;28;20234;-59
2021/08/22 07:16:11;;;;;;;9.30;8.40;;;35.10;54.90;;;;;;6327788;28;20244;-59
2021/08/22 07:19:14;;;;;;;10.30;9.30;;;36.00;52.10;;;;;;6327593;28;20324;-69
2021/08/22 07:22:18;;;;;;;9.93;9.13;;;36.60;50.30;;;;;;6327501;28;20694;-59
2021/08/22 07:25:23;;;;;;;9.70;8.88;;;37.00;48.50;;;;;;6322959;28;20221;-63
2021/08/22 07:28:26;;;;;;;9.50;8.60;;;37.80;47.00;;;;;;6327603;28;20252;-64
2021/08/22 07:31:29;;;;;;;10.18;9.38;;;38.30;45.60;;;;;;6327196;28;20813;-64
2021/08/22 07:34:33;;;;;;;8.95;8.15;;;39.20;44.00;;;;;;6327084;28;20229;-63
2021/08/22 07:37:36;;;;;;;9.82;8.80;;;39.70;41.90;;;;;;6327115;28;20233;-64
2021/08/22 07:40:40;;;;;;;10.02;9.32;;;40.20;41.00;;;;;;6327013;28;20687;-63
2021/08/22 07:43:44;;;;;;;8.82;8.23;;;40.90;39.70;;;;;;6326421;28;20521;-63
2021/08/22 07:46:48;;;;;;;8.77;7.90;;;41.90;38.20;;;;;;6326284;28;20233;-63
2021/08/22 07:49:51;;;;;;;8.32;7.72;;;42.60;36.80;;;;;;6326453;28;20318;-64
2021/08/22 07:52:54;;;;;;;8.27;7.57;;;43.20;35.50;;;;;;6326191;28;20582;-64
2021/08/22 07:55:59;;;;;;;8.30;7.60;;;43.00;34.70;;;;;;6326908;28;20197;-64
2021/08/22 07:59:02;;;;;;;9.48;8.65;;;42.60;34.90;;;;;;6326455;28;20245;-63
2021/08/22 08:02:05;;;;;;;9.95;8.15;;;42.60;34.60;;;;;;6326488;28;20229;-63
2021/08/22 08:05:09;;;;;;;9.48;8.63;;;42.70;34.20;;;;;;6326141;28;20310;-63
2021/08/22 08:08:13;;;;;;;7.90;7.20;;;42.70;34.20;;;;;;6326446;28;20225;-63
2021/08/22 08:11:17;;;;;;;8.32;7.63;;;43.20;33.50;;;;;;6326107;28;20225;-64
2021/08/22 08:14:20;;;;;;;7.65;6.95;;;44.00;33.00;;;;;;6325922;28;20226;-63
2021/08/22 08:17:23;;;;;;;8.20;7.60;;;45.70;31.20;;;;;;6325985;28;20225;-63
2021/08/22 08:20:27;;;;;;;8.55;6.82;;;46.50;29.40;;;;;;6325759;28;20346;-63
2021/08/22 08:23:30;;;;;;;7.82;7.07;;;45.90;29.30;;;;;;6326000;28;20235;-63
2021/08/22 08:26:35;;;;;;;7.47;6.88;;;45.70;29.40;;;;;;6316230;28;20222;-63
2021/08/22 08:29:38;;;;;;;7.05;6.57;;;46.60;29.60;;;;;;6326026;28;20288;-63
2021/08/22 08:32:41;;;;;;;8.00;7.40;;;47.80;27.80;;;;;;6325782;28;20708;-63
2021/08/22 08:35:44;;;;;;;8.02;7.43;;;49.10;27.00;;;;;;6325912;28;20229;-63
2021/08/22 08:38:47;;;;;;;7.90;7.40;;;50.00;26.60;;;;;;6325101;28;20611;-64
2021/08/22 08:41:52;;;;;;;8.02;7.43;;;49.90;25.50;;;;;;6325622;28;20256;-63
2021/08/22 08:44:56;;;;;;;7.95;7.15;;;49.50;25.90;;;;;;6325724;28;20230;-63
2021/08/22 08:48:00;;;;;;;7.60;6.90;;;50.20;25.60;;;;;;6325700;28;20234;-63
2021/08/22 08:51:14;;;;;;;7.70;6.93;;;50.90;25.50;;;;;;6325705;28;20332;-64
2021/08/22 08:54:19;;;;;;;9.55;7.95;;;50.80;24.80;;;;;;6325665;28;20252;-64
2021/08/22 08:57:23;;;;;;;7.68;7.07;;;51.20;25.00;;;;;;6324957;28;20576;-64
2021/08/22 09:00:26;;;;;;;8.00;7.45;;;51.20;24.80;;;;;;6325146;28;20549;-64
2021/08/22 09:03:30;;;;;;;7.85;7.28;;;50.80;24.80;;;;;;6324607;28;20237;-64
2021/08/22 09:07:12;;;;;;;8.18;7.35;;;51.40;24.30;;;;;;6324237;28;20225;-64
2021/08/22 09:10:53;;;;;;;7.93;7.43;;;51.60;24.10;;;;;;6323765;28;20252;-64
2021/08/22 09:14:38;;;;;;;7.03;6.50;;;52.00;23.80;;;;;;6324287;28;20233;-64
2021/08/22 09:18:18;;;;;;;7.70;7.10;;;52.40;23.50;;;;;;6291403;28;20249;-63
2021/08/22 09:22:05;;;;;;;7.50;6.90;;;50.40;24.00;;;;;;6309065;28;20608;-64
2021/08/22 09:25:45;;;;;;;7.50;6.90;;;47.80;25.50;;;;;;6323662;28;20292;-64
2021/08/22 09:29:45;;;;;;;7.75;7.15;;;46.20;26.80;;;;;;6319463;28;20221;-64
2021/08/22 09:33:28;;;;;;;7.32;6.78;;;44.60;28.00;;;;;;6323285;28;20236;-64
2021/08/22 09:37:27;;;;;;;7.78;7.18;;;43.60;29.10;;;;;;6323672;28;20745;-64
2021/08/22 09:41:07;;;;;;;8.07;7.47;;;42.70;29.60;;;;;;6219970;28;20235;-64
2021/08/22 09:44:59;;;;;;;8.23;7.63;;;41.50;31.50;;;;;;6256699;28;20278;-63
2021/08/22 09:48:40;;;;;;;8.68;7.97;;;40.50;32.40;;;;;;6322091;28;20233;-64
2021/08/22 09:52:25;;;;;;;8.70;8.00;;;39.40;34.00;;;;;;6300354;28;20233;-63
2021/08/22 09:56:19;;;;;;;7.88;7.28;;;38.50;35.40;;;;;;6336926;28;20217;-64
2021/08/22 10:00:13;;;;;;;8.73;8.02;;;37.70;36.60;;;;;;6221790;28;20223;-65
2021/08/22 10:03:58;;;;;;;7.55;6.95;;;36.20;38.20;;;;;;6246570;28;20223;-63
2021/08/22 10:07:16;;;;;;;9.63;7.90;;;35.30;39.90;;;;;;6321841;28;20226;-64
2021/08/22 10:10:21;;;;;;;7.55;6.85;;;34.50;41.40;;;;;;6325438;28;20221;-65
2021/08/22 10:13:25;;;;;;;8.60;6.90;;;34.10;42.20;;;;;;6322944;28;20240;-64
2021/08/22 10:16:28;;;;;;;7.05;6.30;;;33.80;42.90;;;;;;6323098;28;20225;-64
2021/08/22 10:19:31;;;;;;;7.72;6.80;;;33.70;43.60;;;;;;6323177;28;20221;-63
2021/08/22 10:22:37;;;;;;;8.13;7.30;;;33.80;44.20;;;;;;6323235;28;20225;-63
2021/08/22 10:25:52;;;;;;;7.53;6.85;;;33.40;45.30;;;;;;6323166;28;20229;-63
2021/08/22 10:29:04;;;;;;;7.97;7.30;;;33.20;45.90;;;;;;6323036;28;20233;-62
2021/08/22 10:32:14;;;;;;;9.05;7.88;;;33.20;46.40;;;;;;6318318;28;20237;-62
2021/08/22 10:35:21;;;;;;;7.88;7.18;;;33.00;47.00;;;;;;6323075;28;20221;-62
2021/08/22 10:38:30;;;;;;;8.65;7.95;;;32.60;48.10;;;;;;6323127;28;20233;-61
2021/08/22 10:41:36;;;;;;;7.50;6.80;;;32.30;48.30;;;;;;6322911;28;20241;-62
2021/08/22 10:44:41;;;;;;;7.07;6.50;;;32.50;48.60;;;;;;6324935;28;20573;-62
2021/08/22 10:47:46;;;;;;;7.88;7.28;;;32.70;47.90;;;;;;6328034;28;20244;-62
2021/08/22 10:51:09;;;;;;;8.43;7.63;;;33.00;48.20;;;;;;6328224;28;21131;-62
2021/08/22 10:54:21;;;;;;;8.20;7.50;;;32.70;49.10;;;;;;6327716;28;20573;-62
2021/08/22 10:57:51;;;;;;;8.60;7.80;;;32.70;49.80;;;;;;6327917;28;20610;-61
2021/08/22 11:01:17;;;;;;;7.20;6.70;;;32.70;49.20;;;;;;6323216;28;20683;-62
2021/08/22 11:04:23;;;;;;;8.23;7.53;;;32.80;48.40;;;;;;6328196;28;20230;-63
2021/08/22 11:07:27;;;;;;;6.90;6.40;;;32.80;48.40;;;;;;6328061;28;20233;-63
2021/08/22 11:10:31;;;;;;;7.70;7.10;;;32.90;49.10;;;;;;6327647;28;20229;-62
2021/08/22 11:13:37;;;;;;;9.68;8.88;;;32.70;48.40;;;;;;6327496;28;20570;-62
2021/08/22 11:16:44;;;;;;;8.02;7.32;;;32.90;48.00;;;;;;6327592;28;20582;-62
2021/08/22 11:19:47;;;;;;;7.95;7.35;;;32.90;48.20;;;;;;6327754;28;20562;-63
2021/08/22 11:22:55;;;;;;;8.35;7.65;;;33.00;49.00;;;;;;6327241;28;20201;-64
2021/08/22 11:26:05;;;;;;;7.20;6.70;;;32.70;50.00;;;;;;6327558;28;20657;-63
2021/08/22 11:29:08;;;;;;;8.23;6.97;;;32.90;49.10;;;;;;6327308;28;20225;-63
2021/08/22 11:32:12;;;;;;;8.07;7.38;;;33.20;48.80;;;;;;6327410;28;20655;-63
2021/08/22 11:35:17;;;;;;;7.22;6.38;;;33.70;47.60;;;;;;6326758;28;20620;-63
2021/08/22 11:38:20;;;;;;;6.55;5.97;;;34.40;46.60;;;;;;6316972;28;20229;-64
2021/08/22 11:41:26;;;;;;;6.63;6.13;;;34.80;45.60;;;;;;6325807;28;20243;-64
2021/08/22 11:44:29;;;;;;;6.60;5.93;;;35.00;44.30;;;;;;6326880;28;20229;-64
2021/08/22 11:47:32;;;;;;;8.25;5.93;;;35.00;44.20;;;;;;6327194;28;20228;-64
2021/08/22 11:50:37;;;;;;;7.07;6.43;;;34.80;44.40;;;;;;6326614;28;20654;-64
2021/08/22 11:53:41;;;;;;;6.30;5.70;;;34.50;44.20;;;;;;6327111;28;20225;-63
2021/08/22 11:56:45;;;;;;;6.70;6.20;;;34.40;43.80;;;;;;6326101;28;20229;-63
2021/08/22 11:59:59;;;;;;;6.65;6.05;;;34.40;44.10;;;;;;6326786;28;20278;-64
2021/08/22 12:03:03;;;;;;;6.43;5.88;;;34.50;43.80;;;;;;6326596;28;20225;-64
2021/08/22 12:06:07;;;;;;;5.68;5.28;;;34.50;43.50;;;;;;6326589;28;20626;-64
2021/08/22 12:09:18;;;;;;;6.97;6.47;;;34.60;44.50;;;;;;6326502;28;20244;-64
2021/08/22 12:12:25;;;;;;;6.45;6.00;;;34.60;45.00;;;;;;6326485;28;20638;-64
2021/08/22 12:15:30;;;;;;;6.60;6.05;;;34.70;44.70;;;;;;6326461;28;20230;-64
2021/08/22 12:18:35;;;;;;;6.05;5.60;;;34.60;44.00;;;;;;6326439;28;20233;-64
2021/08/22 12:21:38;;;;;;;6.32;5.82;;;34.10;45.10;;;;;;6326254;28;20217;-64
2021/08/22 12:24:45;;;;;;;5.93;5.53;;;34.20;45.50;;;;;;6326303;28;20236;-64
2021/08/22 12:27:50;;;;;;;7.57;6.78;;;34.20;45.10;;;;;;6326149;28;20225;-64
2021/08/22 12:31:04;;;;;;;6.28;5.78;;;34.20;44.70;;;;;;6326048;28;20226;-64
2021/08/22 12:34:09;;;;;;;5.65;5.22;;;34.30;44.80;;;;;;6325918;28;20291;-64
2021/08/22 12:37:16;;;;;;;5.32;4.93;;;34.10;44.60;;;;;;6325719;28;20233;-64
2021/08/22 12:40:24;;;;;;;6.35;5.85;;;34.00;43.10;;;;;;6325675;28;20233;-64
2021/08/22 12:43:28;;;;;;;6.65;6.15;;;33.90;45.30;;;;;;6321290;28;20391;-64
2021/08/22 12:46:33;;;;;;;6.95;6.30;;;33.80;45.50;;;;;;6325556;28;20229;-64
2021/08/22 12:49:36;;;;;;;7.30;6.68;;;33.80;46.40;;;;;;6325528;28;20245;-64
2021/08/22 12:52:39;;;;;;;16.02;14.32;;;33.60;45.20;;;;;;6325430;28;20226;-64
2021/08/22 12:55:42;;;;;;;21.48;17.80;;;33.40;45.40;;;;;;6325226;28;20233;-64
2021/08/22 12:58:47;;;;;;;9.30;7.63;;;33.30;45.70;;;;;;6325053;28;20233;-64
2021/08/22 13:01:51;;;;;;;8.02;7.32;;;33.30;45.00;;;;;;6325087;28;20299;-64
2021/08/22 13:04:54;;;;;;;6.47;6.05;;;33.20;45.70;;;;;;6325330;28;20643;-64
2021/08/22 13:07:57;;;;;;;6.88;6.25;;;33.10;45.80;;;;;;6323745;28;20663;-64
2021/08/22 13:11:00;;;;;;;7.05;6.20;;;33.20;46.40;;;;;;6325206;28;20689;-64
2021/08/22 13:14:07;;;;;;;7.15;6.55;;;33.30;46.80;;;;;;6324829;28;20217;-64
2021/08/22 13:17:10;;;;;;;7.07;6.47;;;33.50;46.60;;;;;;6325440;28;20229;-64
2021/08/22 13:20:14;;;;;;;5.97;5.50;;;33.60;45.50;;;;;;6325185;28;20232;-64
2021/08/22 13:23:17;;;;;;;6.00;5.50;;;33.30;43.90;;;;;;6324837;28;20225;-64
2021/08/22 13:26:22;;;;;;;6.05;5.55;;;33.30;43.40;;;;;;6324776;28;20259;-64
2021/08/22 13:29:26;;;;;;;6.22;5.63;;;33.20;43.90;;;;;;6324859;28;20225;-64
2021/08/22 13:32:29;;;;;;;5.72;5.32;;;33.00;44.00;;;;;;6324524;28;20237;-64
2021/08/22 13:35:52;;;;;;;6.90;6.32;;;32.90;44.70;;;;;;6324492;28;20678;-64
2021/08/22 13:38:56;;;;;;;7.30;6.00;;;32.60;44.70;;;;;;6324474;28;20666;-64
2021/08/22 13:42:01;;;;;;;6.10;5.40;;;32.60;45.20;;;;;;6324399;28;20221;-64
2021/08/22 13:45:07;;;;;;;6.60;6.00;;;32.40;46.80;;;;;;6324260;28;20809;-64
2021/08/22 13:48:11;;;;;;;8.45;6.10;;;32.30;47.90;;;;;;6324267;28;20244;-64
2021/08/22 13:51:14;;;;;;;7.05;6.45;;;32.30;48.90;;;;;;6324447;28;20236;-64
2021/08/22 13:54:17;;;;;;;8.30;7.55;;;32.20;50.40;;;;;;6324141;28;20229;-65
2021/08/22 13:57:21;;;;;;;7.07;6.47;;;32.00;50.50;;;;;;6324541;28;20244;-64
2021/08/22 14:00:26;;;;;;;7.22;6.72;;;31.80;50.50;;;;;;6323967;28;20286;-64
2021/08/22 14:03:29;;;;;;;7.40;6.68;;;31.70;51.10;;;;;;6324313;28;20241;-65
2021/08/22 14:06:33;;;;;;;7.82;6.90;;;31.60;51.50;;;;;;6323942;28;20691;-64
2021/08/22 14:09:36;;;;;;;5.97;5.47;;;31.40;51.40;;;;;;6324176;28;20247;-64
2021/08/22 14:12:40;;;;;;;6.95;6.22;;;31.30;50.40;;;;;;6323962;28;20237;-64
2021/08/22 14:15:45;;;;;;;6.55;6.03;;;31.20;50.20;;;;;;6324294;28;20236;-65
2021/08/22 14:18:50;;;;;;;6.93;6.43;;;31.20;50.60;;;;;;6324668;28;20237;-60
2021/08/22 14:21:54;;;;;;;6.65;6.05;;;31.00;51.80;;;;;;6329307;28;20225;-65
2021/08/22 14:24:57;;;;;;;5.78;5.28;;;30.50;53.60;;;;;;6329038;28;20230;-65
2021/08/22 14:28:00;;;;;;;5.33;4.83;;;30.00;54.60;;;;;;6329060;28;20240;-65
2021/08/22 14:31:05;;;;;;;5.70;5.27;;;29.70;55.70;;;;;;6328906;28;20260;-65
2021/08/22 14:34:08;;;;;;;6.37;5.77;;;29.50;56.30;;;;;;6329102;28;20241;-64
2021/08/22 14:37:11;;;;;;;5.87;5.37;;;29.30;56.20;;;;;;6328770;28;20616;-64
2021/08/22 14:40:14;;;;;;;5.77;5.30;;;29.00;56.80;;;;;;6328615;28;20233;-69
2021/08/22 14:43:17;;;;;;;5.03;4.63;;;28.90;56.90;;;;;;6328651;28;20236;-69
2021/08/22 14:46:22;;;;;;;6.03;4.93;;;28.80;57.00;;;;;;6328288;28;20225;-70
2021/08/22 14:49:26;;;;;;;5.00;4.60;;;28.50;57.50;;;;;;6328562;28;20229;-69
2021/08/22 14:52:29;;;;;;;4.93;4.53;;;28.40;57.20;;;;;;6323377;28;20233;-69
2021/08/22 14:55:33;;;;;;;4.47;4.03;;;28.20;57.80;;;;;;6328291;28;20241;-68
2021/08/22 14:58:36;;;;;;;5.53;4.30;;;28.00;57.70;;;;;;6327955;28;20249;-68
2021/08/22 15:01:41;;;;;;;4.93;4.37;;;27.90;57.80;;;;;;6328379;28;20240;-69
2021/08/22 15:04:45;;;;;;;4.40;4.10;;;27.70;58.30;;;;;;6328228;28;20232;-69
2021/08/22 15:07:48;;;;;;;5.17;4.77;;;27.70;58.80;;;;;;6327980;28;20693;-69
2021/08/22 15:10:52;;;;;;;4.07;3.77;;;27.60;59.10;;;;;;6327798;28;20198;-67
2021/08/22 15:13:56;;;;;;;4.37;4.07;;;27.60;59.60;;;;;;6327655;28;20788;-68
2021/08/22 15:17:00;;;;;;;4.37;3.97;;;27.40;59.40;;;;;;6327991;28;20229;-68
2021/08/22 15:20:04;;;;;;;4.37;3.97;;;27.30;60.00;;;;;;6327699;28;20228;-68
2021/08/22 15:23:09;;;;;;;5.40;4.90;;;27.10;61.10;;;;;;6327635;28;20248;-68
2021/08/22 15:26:12;;;;;;;5.10;4.70;;;26.90;63.50;;;;;;6327391;28;20238;-68
2021/08/22 15:29:15;;;;;;;4.70;4.30;;;26.70;64.10;;;;;;6328064;28;20233;-68
2021/08/22 15:32:21;;;;;;;5.00;4.50;;;26.60;64.60;;;;;;6326062;28;20548;-68
2021/08/22 15:35:24;;;;;;;5.80;5.03;;;26.40;65.20;;;;;;6327511;28;20256;-68
2021/08/22 15:38:28;;;;;;;4.90;4.50;;;26.30;66.10;;;;;;6327013;28;20234;-68
2021/08/22 15:41:34;;;;;;;4.70;4.37;;;26.20;66.60;;;;;;6327210;28;20568;-69
2021/08/22 15:44:38;;;;;;;4.80;4.40;;;26.10;67.30;;;;;;6327212;28;20229;-68
2021/08/22 15:47:42;;;;;;;5.00;4.50;;;26.00;67.60;;;;;;6327049;28;20229;-68
2021/08/22 15:50:46;;;;;;;5.50;4.00;;;26.00;67.50;;;;;;6327232;28;20256;-68
2021/08/22 15:53:49;;;;;;;4.80;4.40;;;25.90;67.50;;;;;;6317022;28;20320;-69
2021/08/22 15:56:54;;;;;;;4.97;4.50;;;25.90;67.90;;;;;;6326856;28;20244;-68
2021/08/22 15:59:57;;;;;;;5.00;4.47;;;25.80;67.50;;;;;;6326489;28;20233;-69
2021/08/22 16:03:02;;;;;;;4.00;3.47;;;25.80;68.70;;;;;;6326892;28;20601;-68
2021/08/22 16:06:06;;;;;;;4.00;3.70;;;25.80;70.30;;;;;;6326551;28;20560;-68
2021/08/22 16:09:09;;;;;;;5.20;4.80;;;25.70;71.00;;;;;;6327000;28;20236;-67